createdAt,value
2023-01-19T00:02:11.767Z,93.56
2023-01-19T00:05:05.399Z,94.22
2023-01-19T00:08:14.816Z,94.36
2023-01-19T00:11:07.259Z,94.65
2023-01-19T00:13:59.799Z,94.67
2023-01-19T00:16:53.401Z,95.04
2023-01-19T00:19:46.390Z,95.77
2023-01-19T00:22:40.609Z,96.01
2023-01-19T00:25:34.399Z,95.81
2023-01-19T00:28:27.563Z,96.00
2023-01-19T00:31:22.111Z,96.63
2023-01-19T00:34:17.556Z,97.38
2023-01-19T00:37:20.577Z,97.21
2023-01-19T00:40:15.314Z,97.94
2023-01-19T00:43:07.841Z,98.41
2023-01-19T00:46:00.763Z,99.32
2023-01-19T00:48:52.711Z,99.22
2023-01-19T00:51:49.060Z,98.75
2023-01-19T00:54:45.989Z,98.95
2023-01-19T00:57:39.046Z,99.45
2023-01-19T01:00:31.138Z,99.27
2023-01-19T01:03:28.239Z,99.23
2023-01-19T01:06:21.879Z,99.24
2023-01-19T01:09:53.813Z,99.21
2023-01-19T01:12:57.540Z,99.19
2023-01-19T01:15:53.603Z,99.10
2023-01-19T01:18:47.140Z,99.41
2023-01-19T01:21:40.187Z,99.28
2023-01-19T01:24:34.456Z,99.00
2023-01-19T01:27:27.467Z,99.01
2023-01-19T01:30:21.458Z,98.86
2023-01-19T01:33:40.994Z,98.62
2023-01-19T01:36:33.534Z,98.45
2023-01-19T01:39:25.840Z,98.31
2023-01-19T01:42:28.215Z,98.26
2023-01-19T01:45:38.983Z,98.24
2023-01-19T01:48:32.366Z,98.12
2023-01-19T01:51:29.459Z,98.07
2023-01-19T01:54:30.454Z,98.23
2023-01-19T01:57:25.345Z,98.97
2023-01-19T02:00:17.971Z,98.31
2023-01-19T02:03:11.551Z,97.84
2023-01-19T02:06:07.436Z,97.87
2023-01-19T02:09:28.771Z,98.01
2023-01-19T02:12:41.575Z,98.41
2023-01-19T02:15:34.195Z,98.53
2023-01-19T02:18:32.453Z,98.71
2023-01-19T02:22:26.762Z,99.20
2023-01-19T02:26:21.043Z,99.15
2023-01-19T02:30:14.407Z,99.16
2023-01-19T02:34:26.591Z,99.20
2023-01-19T02:38:40.184Z,99.47
2023-01-19T02:42:43.704Z,99.38
2023-01-19T02:46:52.530Z,99.72
2023-01-19T02:50:54.206Z,99.89
2023-01-19T02:54:09.854Z,99.82
2023-01-19T02:57:41.128Z,99.77
2023-01-19T03:05:35.165Z,99.38
2023-01-19T03:08:44.483Z,99.24
2023-01-19T03:11:14.891Z,99.13
2023-01-19T03:13:45.903Z,99.11
2023-01-19T03:16:14.023Z,99.10
2023-01-19T03:18:47.709Z,99.02
2023-01-19T03:21:19.713Z,98.85
2023-01-19T03:23:50.306Z,98.97
2023-01-19T03:26:25.878Z,98.96
2023-01-19T03:28:56.523Z,98.96
2023-01-19T03:31:28.409Z,99.24
2023-01-19T03:34:05.493Z,99.47
2023-01-19T03:36:45.076Z,99.66
2023-01-19T03:39:18.014Z,99.95
2023-01-19T03:41:50.210Z,100.00
2023-01-19T03:44:18.390Z,100.00
2023-01-19T03:46:48.201Z,100.00
2023-01-19T03:49:16.752Z,100.00
2023-01-19T03:51:46.128Z,100.00
2023-01-19T03:54:14.205Z,100.00
2023-01-19T03:56:43.756Z,100.00
2023-01-19T03:59:11.838Z,100.00
2023-01-19T04:01:40.738Z,100.00
2023-01-19T04:04:09.543Z,100.00
2023-01-19T04:06:43.328Z,100.00
2023-01-19T04:09:12.424Z,100.00
2023-01-19T04:11:41.672Z,100.00
2023-01-19T04:14:13.939Z,100.00
2023-01-19T04:16:42.141Z,100.00
2023-01-19T04:19:11.657Z,100.00
2023-01-19T04:21:39.842Z,100.00
2023-01-19T04:24:10.433Z,100.00
2023-01-19T04:26:38.521Z,100.00
2023-01-19T04:29:07.051Z,100.00
2023-01-19T04:31:35.940Z,100.00
2023-01-19T04:34:04.391Z,100.00
2023-01-19T04:36:32.471Z,100.00
2023-01-19T04:39:00.572Z,100.00
2023-01-19T04:41:30.284Z,100.00
2023-01-19T04:43:59.145Z,100.00
2023-01-19T04:46:27.308Z,100.00
2023-01-19T04:48:56.193Z,100.00
2023-01-19T04:51:30.739Z,100.00
2023-01-19T04:54:28.558Z,100.00
2023-01-19T04:57:12.033Z,100.00
2023-01-19T05:00:21.446Z,100.00
2023-01-19T05:02:52.169Z,100.00
2023-01-19T05:05:20.913Z,100.00
2023-01-19T05:07:48.965Z,100.00
2023-01-19T05:10:17.267Z,100.00
2023-01-19T05:12:45.294Z,100.00
2023-01-19T05:15:13.416Z,100.00
2023-01-19T05:17:41.975Z,100.00
2023-01-19T05:20:12.558Z,100.00
2023-01-19T05:22:41.522Z,100.00
2023-01-19T05:25:11.126Z,100.00
2023-01-19T05:27:39.271Z,100.00
2023-01-19T05:30:09.326Z,100.00
2023-01-19T05:32:38.832Z,100.00
2023-01-19T05:35:20.167Z,100.00
2023-01-19T05:37:55.427Z,100.00
2023-01-19T05:40:44.121Z,100.00
2023-01-19T05:43:13.280Z,100.00
2023-01-19T05:45:41.818Z,100.00
2023-01-19T05:48:10.676Z,100.00
2023-01-19T05:50:38.889Z,100.00
2023-01-19T05:53:07.069Z,100.00
2023-01-19T05:55:35.214Z,100.00
2023-01-19T05:58:03.894Z,100.00
2023-01-19T06:00:31.937Z,100.00
2023-01-19T06:03:01.110Z,100.00
2023-01-19T06:05:30.549Z,100.00
2023-01-19T06:07:58.998Z,100.00
2023-01-19T06:10:27.170Z,100.00
2023-01-19T06:12:55.330Z,100.00
2023-01-19T06:15:23.950Z,100.00
2023-01-19T06:17:51.947Z,100.00
2023-01-19T06:20:20.166Z,100.00
2023-01-19T06:22:48.239Z,100.00
2023-01-19T06:25:16.989Z,100.00
2023-01-19T06:27:46.217Z,100.00
2023-01-19T06:30:14.625Z,100.00
2023-01-19T06:32:42.711Z,100.00
2023-01-19T06:35:12.371Z,100.00
2023-01-19T06:37:41.425Z,100.00
2023-01-19T06:40:10.354Z,100.00
2023-01-19T06:42:38.428Z,100.00
2023-01-19T06:45:07.265Z,100.00
2023-01-19T06:47:35.220Z,100.00
2023-01-19T06:50:03.627Z,100.00
2023-01-19T06:52:31.897Z,100.00
2023-01-19T06:55:00.011Z,100.00
2023-01-19T06:57:28.163Z,100.00
2023-01-19T06:59:58.577Z,100.00
2023-01-19T07:02:28.559Z,100.00
2023-01-19T07:04:57.160Z,100.00
2023-01-19T07:07:25.275Z,100.00
2023-01-19T07:09:54.321Z,100.00
2023-01-19T07:12:23.353Z,100.00
2023-01-19T07:14:51.799Z,100.00
2023-01-19T07:17:19.999Z,100.00
2023-01-19T07:19:48.120Z,100.00
2023-01-19T07:22:16.159Z,100.00
2023-01-19T07:24:45.316Z,100.00
2023-01-19T07:27:13.604Z,100.00
2023-01-19T07:29:43.028Z,100.00
2023-01-19T07:32:11.853Z,100.00
2023-01-19T07:34:39.877Z,100.00
2023-01-19T07:37:08.021Z,100.00
2023-01-19T07:39:37.256Z,100.00
2023-01-19T07:42:05.451Z,100.00
2023-01-19T07:44:37.307Z,100.00
2023-01-19T07:47:07.575Z,100.00
2023-01-19T07:49:36.487Z,100.00
2023-01-19T07:52:05.093Z,100.00
2023-01-19T07:54:34.324Z,100.00
2023-01-19T07:57:02.361Z,100.00
2023-01-19T07:59:31.206Z,100.00
2023-01-19T08:01:59.837Z,100.00
2023-01-19T08:04:28.848Z,100.00
2023-01-19T08:06:57.134Z,100.00
2023-01-19T08:09:25.199Z,100.00
2023-01-19T08:12:21.690Z,100.00
2023-01-19T08:14:49.812Z,99.98
2023-01-19T08:17:19.955Z,100.00
2023-01-19T08:19:47.981Z,99.95
2023-01-19T08:22:16.077Z,99.93
2023-01-19T08:24:44.011Z,99.96
2023-01-19T08:27:14.992Z,99.89
2023-01-19T08:29:43.326Z,99.91
2023-01-19T08:32:11.555Z,99.98
2023-01-19T08:34:40.740Z,99.79
2023-01-19T08:37:08.700Z,99.56
2023-01-19T08:39:36.857Z,99.35
2023-01-19T08:42:05.512Z,98.77
2023-01-19T08:44:33.526Z,98.69
2023-01-19T08:47:01.602Z,98.61
2023-01-19T08:49:30.501Z,98.62
2023-01-19T08:51:58.534Z,98.63
2023-01-19T08:54:26.997Z,98.29
2023-01-19T08:56:55.106Z,97.87
2023-01-19T08:59:23.029Z,97.47
2023-01-19T09:01:51.300Z,96.95
2023-01-19T09:04:19.332Z,96.74
2023-01-19T09:06:47.297Z,96.60
2023-01-19T09:09:15.478Z,96.57
2023-01-19T09:11:43.372Z,96.37
2023-01-19T09:14:11.479Z,95.15
2023-01-19T09:16:39.657Z,94.52
2023-01-19T09:19:08.772Z,93.57
2023-01-19T09:21:36.901Z,93.75
2023-01-19T09:24:05.200Z,92.77
2023-01-19T09:26:33.364Z,89.54
2023-01-19T09:29:01.586Z,87.60
2023-01-19T09:31:29.643Z,86.80
2023-01-19T09:33:57.805Z,86.54
2023-01-19T09:36:25.833Z,86.61
2023-01-19T09:38:54.502Z,86.99
2023-01-19T09:41:22.844Z,87.91
2023-01-19T09:44:01.071Z,88.18
2023-01-19T09:46:41.554Z,88.61
2023-01-19T09:49:31.497Z,89.04
2023-01-19T09:51:59.594Z,88.22
2023-01-19T09:54:41.147Z,88.43
2023-01-19T09:57:13.730Z,88.67
2023-01-19T09:59:43.974Z,87.92
2023-01-19T10:02:42.662Z,86.72
2023-01-19T10:05:20.035Z,87.72
2023-01-19T10:08:12.147Z,87.43
2023-01-19T10:10:45.629Z,87.20
2023-01-19T10:13:52.497Z,87.73
2023-01-19T10:16:45.467Z,87.93
2023-01-19T10:19:44.611Z,87.91
2023-01-19T10:22:22.263Z,87.13
2023-01-19T10:24:55.588Z,86.59
2023-01-19T10:27:29.483Z,87.31
2023-01-19T10:29:59.276Z,86.97
2023-01-19T10:32:33.640Z,86.61
2023-01-19T10:35:14.522Z,86.34
2023-01-19T10:37:45.305Z,85.55
2023-01-19T10:40:13.426Z,85.19
2023-01-19T10:42:42.280Z,84.88
2023-01-19T10:45:23.852Z,84.26
2023-01-19T10:47:54.401Z,84.03
2023-01-19T10:50:35.367Z,83.06
2023-01-19T10:53:08.242Z,83.38
2023-01-19T10:55:38.846Z,82.37
2023-01-19T10:58:25.278Z,83.11
2023-01-19T11:00:53.724Z,82.61
2023-01-19T11:03:32.856Z,82.35
2023-01-19T11:06:16.392Z,81.13
2023-01-19T11:08:47.027Z,80.70
2023-01-19T11:11:15.574Z,79.74
2023-01-19T11:13:45.482Z,77.70
2023-01-19T11:16:25.733Z,77.47
2023-01-19T11:18:56.762Z,76.79
2023-01-19T11:21:27.088Z,74.66
2023-01-19T11:23:58.286Z,74.01
2023-01-19T11:26:34.954Z,72.84
2023-01-19T11:29:04.155Z,70.14
2023-01-19T11:31:35.153Z,68.75
2023-01-19T11:34:05.939Z,69.03
2023-01-19T11:36:36.829Z,68.67
2023-01-19T11:39:28.097Z,68.30
2023-01-19T11:42:02.545Z,67.06
2023-01-19T11:44:35.588Z,65.93
2023-01-19T11:47:12.309Z,63.83
2023-01-19T11:49:49.688Z,64.00
2023-01-19T11:52:36.158Z,64.30
2023-01-19T11:55:14.854Z,63.99
2023-01-19T11:57:47.486Z,64.61
2023-01-19T12:00:37.225Z,64.05
2023-01-19T12:03:12.928Z,64.70
2023-01-19T12:05:48.030Z,65.80
2023-01-19T12:08:22.015Z,65.33
2023-01-19T12:10:52.587Z,65.44
2023-01-19T12:13:23.475Z,65.49
2023-01-19T12:15:57.939Z,65.62
2023-01-19T12:18:49.186Z,66.27
2023-01-19T12:21:19.365Z,66.74
2023-01-19T12:24:16.417Z,66.98
2023-01-19T12:26:54.305Z,66.72
2023-01-19T12:29:30.726Z,67.50
2023-01-19T12:32:13.991Z,67.33
2023-01-19T12:34:52.168Z,66.95
2023-01-19T12:37:26.255Z,66.87
2023-01-19T12:39:58.074Z,66.30
2023-01-19T12:42:28.518Z,65.83
2023-01-19T12:45:07.986Z,64.40
2023-01-19T12:47:37.852Z,63.91
2023-01-19T12:50:17.205Z,63.31
2023-01-19T12:52:57.765Z,62.81
2023-01-19T12:55:35.414Z,62.76
2023-01-19T12:58:07.964Z,62.58
2023-01-19T13:00:41.831Z,62.40
2023-01-19T13:03:22.035Z,62.90
2023-01-19T13:05:53.495Z,63.33
2023-01-19T13:08:28.126Z,62.90
2023-01-19T13:11:00.764Z,63.04
2023-01-19T13:13:31.304Z,63.74
2023-01-19T13:16:19.582Z,64.15
2023-01-19T13:18:56.518Z,63.45
2023-01-19T13:21:30.623Z,63.65
2023-01-19T13:24:05.074Z,63.61
2023-01-19T13:26:40.102Z,64.03
2023-01-19T13:29:35.460Z,64.12
2023-01-19T13:32:13.196Z,64.68
2023-01-19T13:34:45.294Z,64.69
2023-01-19T13:37:35.986Z,64.65
2023-01-19T13:40:04.515Z,65.07
2023-01-19T13:42:41.942Z,65.28
2023-01-19T13:45:37.947Z,65.19
2023-01-19T13:48:08.999Z,64.87
2023-01-19T13:50:39.635Z,65.05
2023-01-19T13:53:24.254Z,65.20
2023-01-19T13:56:29.601Z,65.05
2023-01-19T13:59:07.050Z,65.26
2023-01-19T14:01:35.969Z,64.85
2023-01-19T14:04:04.763Z,64.44
2023-01-19T14:06:39.851Z,64.81
2023-01-19T14:09:16.608Z,64.95
2023-01-19T14:12:17.611Z,64.29
2023-01-19T14:14:48.458Z,64.13
2023-01-19T14:17:32.164Z,64.45
2023-01-19T14:20:03.013Z,64.69
2023-01-19T14:22:44.854Z,64.78
2023-01-19T14:25:29.616Z,64.99
2023-01-19T14:28:39.948Z,65.26
2023-01-19T14:31:27.685Z,65.16
2023-01-19T14:33:58.566Z,65.47
2023-01-19T14:36:33.664Z,65.69
2023-01-19T14:39:03.209Z,65.78
2023-01-19T14:41:39.118Z,65.92
2023-01-19T14:44:11.750Z,66.04
2023-01-19T14:46:47.303Z,65.78
2023-01-19T14:49:29.760Z,65.98
2023-01-19T14:51:58.726Z,65.95
2023-01-19T14:54:34.788Z,66.18
2023-01-19T14:57:03.958Z,66.25
2023-01-19T14:59:33.143Z,65.94
2023-01-19T15:02:01.855Z,66.06
2023-01-19T15:04:29.963Z,66.23
2023-01-19T15:06:58.541Z,66.29
2023-01-19T15:09:27.256Z,66.65
2023-01-19T15:11:55.798Z,66.56
2023-01-19T15:14:24.121Z,66.45
2023-01-19T15:16:52.419Z,66.53
2023-01-19T15:19:20.881Z,66.83
2023-01-19T15:21:49.434Z,66.73
2023-01-19T15:24:18.090Z,66.99
2023-01-19T15:26:46.689Z,66.84
2023-01-19T15:29:17.197Z,66.73
2023-01-19T15:31:45.548Z,66.96
2023-01-19T15:34:14.694Z,66.97
2023-01-19T15:36:42.935Z,66.90
2023-01-19T15:39:11.132Z,66.92
2023-01-19T15:41:40.623Z,66.91
2023-01-19T15:44:10.959Z,66.96
2023-01-19T15:46:39.101Z,66.76
2023-01-19T15:49:07.295Z,66.96
2023-01-19T15:51:35.341Z,66.69
2023-01-19T15:54:03.311Z,66.69
2023-01-19T15:56:33.004Z,66.85
2023-01-19T15:59:03.124Z,66.89
2023-01-19T16:01:34.017Z,67.09
2023-01-19T16:04:05.382Z,66.99
2023-01-19T16:06:34.413Z,66.90
2023-01-19T16:09:04.499Z,66.73
2023-01-19T16:11:35.162Z,66.85
2023-01-19T16:14:03.525Z,66.98
2023-01-19T16:16:31.633Z,67.16
2023-01-19T16:18:59.794Z,67.47
2023-01-19T16:21:27.932Z,67.35
2023-01-19T16:23:56.161Z,67.54
2023-01-19T16:26:34.446Z,67.69
2023-01-19T16:29:10.941Z,67.83
2023-01-19T16:31:41.028Z,68.45
2023-01-19T16:34:10.401Z,69.10
2023-01-19T16:36:47.911Z,69.62
2023-01-19T16:39:17.666Z,69.95
2023-01-19T16:41:46.371Z,70.45
2023-01-19T16:44:16.523Z,70.84
2023-01-19T16:46:46.802Z,71.77
2023-01-19T16:49:21.220Z,72.32
2023-01-19T16:51:51.065Z,73.00
2023-01-19T16:54:22.163Z,74.68
2023-01-19T16:56:53.515Z,75.11
2023-01-19T16:59:22.865Z,75.03
2023-01-19T17:01:52.152Z,75.92
2023-01-19T17:04:22.964Z,76.11
2023-01-19T17:06:51.135Z,76.40
2023-01-19T17:09:19.535Z,76.58
2023-01-19T17:11:47.706Z,76.78
2023-01-19T17:14:20.523Z,76.80
2023-01-19T17:16:49.763Z,77.06
2023-01-19T17:19:20.776Z,77.39
2023-01-19T17:21:50.256Z,77.72
2023-01-19T17:24:20.065Z,77.95
2023-01-19T17:26:49.964Z,78.15
2023-01-19T17:29:24.649Z,78.26
2023-01-19T17:31:56.445Z,78.03
2023-01-19T17:34:25.201Z,77.99
2023-01-19T17:36:58.409Z,78.30
2023-01-19T17:39:26.519Z,78.67
2023-01-19T17:41:54.622Z,78.89
2023-01-19T17:44:22.705Z,78.93
2023-01-19T17:46:51.588Z,78.83
2023-01-19T17:49:20.500Z,78.67
2023-01-19T17:51:54.544Z,78.55
2023-01-19T17:54:23.178Z,78.41
2023-01-19T17:56:51.451Z,78.31
2023-01-19T17:59:20.590Z,78.07
2023-01-19T18:01:49.228Z,77.66
2023-01-19T18:04:17.643Z,77.28
2023-01-19T18:06:47.155Z,77.07
2023-01-19T18:09:15.852Z,76.96
2023-01-19T18:11:44.533Z,77.10
2023-01-19T18:14:13.069Z,77.01
2023-01-19T18:16:42.103Z,77.07
2023-01-19T18:19:10.242Z,77.10
2023-01-19T18:22:08.232Z,77.10
2023-01-19T18:24:37.035Z,77.09
2023-01-19T18:27:05.671Z,77.32
2023-01-19T18:29:33.797Z,77.34
2023-01-19T18:32:01.898Z,77.49
2023-01-19T18:34:30.012Z,77.52
2023-01-19T18:36:58.086Z,77.40
2023-01-19T18:39:26.264Z,77.45
2023-01-19T18:41:54.243Z,77.41
2023-01-19T18:44:23.615Z,77.40
2023-01-19T18:46:53.916Z,77.36
2023-01-19T18:49:22.107Z,77.24
2023-01-19T18:51:50.334Z,77.15
2023-01-19T18:54:18.486Z,77.15
2023-01-19T18:56:49.482Z,77.16
2023-01-19T18:59:18.086Z,77.42
2023-01-19T19:01:46.871Z,77.53
2023-01-19T19:04:14.995Z,77.80
2023-01-19T19:06:43.627Z,77.79
2023-01-19T19:09:11.906Z,77.77
2023-01-19T19:11:41.095Z,77.73
2023-01-19T19:14:09.874Z,77.74
2023-01-19T19:16:39.516Z,77.78
2023-01-19T19:19:08.571Z,77.80
2023-01-19T19:21:36.767Z,77.71
2023-01-19T19:24:04.910Z,77.65
2023-01-19T19:26:32.964Z,77.74
2023-01-19T19:29:01.575Z,77.81
2023-01-19T19:31:30.655Z,77.80
2023-01-19T19:33:59.936Z,77.79
2023-01-19T19:36:30.104Z,77.84
2023-01-19T19:39:00.509Z,77.84
2023-01-19T19:41:29.143Z,77.80
2023-01-19T19:44:00.805Z,77.75
2023-01-19T19:46:29.737Z,77.79
2023-01-19T19:48:58.529Z,77.66
2023-01-19T19:51:30.424Z,77.75
2023-01-19T19:54:00.565Z,77.80
2023-01-19T19:56:32.378Z,77.98
2023-01-19T19:59:01.087Z,77.94
2023-01-19T20:01:33.510Z,77.79
2023-01-19T20:04:13.340Z,77.79
2023-01-19T20:06:44.845Z,77.81
2023-01-19T20:09:14.932Z,77.77
2023-01-19T20:11:46.828Z,77.79
2023-01-19T20:14:35.637Z,77.85
2023-01-19T20:17:05.120Z,77.75
2023-01-19T20:19:33.255Z,77.76
2023-01-19T20:22:01.961Z,77.77
2023-01-19T20:24:30.187Z,77.65
2023-01-19T20:26:58.471Z,77.62
2023-01-19T20:29:27.040Z,77.68
2023-01-19T20:31:57.357Z,77.67
2023-01-19T20:34:32.951Z,77.74
2023-01-19T20:37:22.050Z,77.81
2023-01-19T20:39:52.113Z,77.88
2023-01-19T20:42:21.558Z,77.95
2023-01-19T20:44:50.542Z,77.92
2023-01-19T20:47:18.821Z,77.98
2023-01-19T20:49:46.982Z,77.86
2023-01-19T20:52:15.069Z,77.87
2023-01-19T20:54:43.216Z,77.76
2023-01-19T20:57:11.522Z,77.66
2023-01-19T20:59:41.017Z,77.58
2023-01-19T21:02:14.368Z,77.43
2023-01-19T21:04:42.605Z,77.18
2023-01-19T21:07:16.860Z,77.08
2023-01-19T21:09:45.269Z,76.83
2023-01-19T21:12:16.141Z,76.68
2023-01-19T21:14:45.943Z,76.41
2023-01-19T21:17:14.113Z,76.32
2023-01-19T21:19:42.157Z,76.28
2023-01-19T21:22:10.196Z,76.27
2023-01-19T21:24:38.246Z,76.15
2023-01-19T21:27:06.359Z,75.99
2023-01-19T21:29:34.434Z,75.98
2023-01-19T21:32:02.506Z,76.01
2023-01-19T21:34:30.489Z,76.00
2023-01-19T21:36:58.762Z,76.12
2023-01-19T21:39:26.816Z,76.22
2023-01-19T21:41:54.834Z,76.63
2023-01-19T21:44:22.839Z,76.92
2023-01-19T21:46:50.909Z,77.08
2023-01-19T21:49:20.447Z,77.15
2023-01-19T21:51:50.784Z,77.49
2023-01-19T21:54:19.216Z,77.70
2023-01-19T21:56:47.226Z,78.22
2023-01-19T21:59:15.861Z,78.30
2023-01-19T22:05:56.062Z,79.07
2023-01-19T22:08:25.269Z,79.21
2023-01-19T22:10:53.527Z,79.06
2023-01-19T22:13:44.376Z,79.08
2023-01-19T22:16:18.198Z,79.04
2023-01-19T22:19:14.468Z,79.20
2023-01-19T22:21:43.570Z,79.27
2023-01-19T22:24:19.962Z,79.39
2023-01-19T22:27:10.690Z,79.44
2023-01-19T22:29:48.497Z,79.54
2023-01-19T22:32:37.205Z,79.72
2023-01-19T22:35:27.397Z,79.68
2023-01-19T22:38:12.781Z,79.67
2023-01-19T22:41:00.998Z,79.55
2023-01-19T22:43:29.081Z,79.58
2023-01-19T22:45:59.166Z,79.62
2023-01-19T22:48:27.379Z,79.61
2023-01-19T22:50:58.485Z,79.56
2023-01-19T22:53:27.215Z,79.50
2023-01-19T22:55:55.368Z,79.52
2023-01-19T22:58:23.589Z,79.61
2023-01-19T23:00:51.715Z,79.71
2023-01-19T23:03:19.744Z,79.82
2023-01-19T23:05:47.727Z,80.02
2023-01-19T23:08:16.459Z,80.05
2023-01-19T23:10:44.487Z,80.27
2023-01-19T23:13:12.470Z,80.28
2023-01-19T23:15:40.619Z,80.44
2023-01-19T23:18:08.713Z,80.60
2023-01-19T23:20:37.183Z,80.56
2023-01-19T23:23:05.277Z,80.52
2023-01-19T23:25:33.328Z,80.53
2023-01-19T23:28:01.466Z,80.56
2023-01-19T23:30:29.472Z,80.78
2023-01-19T23:32:57.510Z,80.52
2023-01-19T23:35:25.508Z,80.16
2023-01-19T23:37:53.473Z,80.30
2023-01-19T23:40:21.475Z,80.45
2023-01-19T23:42:49.463Z,80.51
2023-01-19T23:45:17.403Z,80.51
2023-01-19T23:47:46.470Z,80.79
2023-01-19T23:50:14.491Z,80.89
2023-01-19T23:52:42.592Z,81.19
2023-01-19T23:55:10.682Z,81.23
2023-01-19T23:57:38.739Z,81.27
